createdAt,value
2022-11-18T07:48:35.671Z,88.57
2022-11-18T07:51:02.497Z,90.55
2022-11-18T07:53:33.666Z,83.72
2022-11-18T07:56:00.914Z,80.32
2022-11-18T07:58:28.254Z,91.28
2022-11-18T08:00:55.303Z,99.95
2022-11-18T08:03:28.806Z,90.68
2022-11-18T08:06:00.046Z,91.30
2022-11-18T08:08:27.150Z,105.55
2022-11-18T08:10:58.659Z,86.90
2022-11-18T08:13:26.478Z,110.10
2022-11-18T08:15:54.551Z,87.95
2022-11-18T08:18:24.761Z,93.93
2022-11-18T08:20:51.962Z,97.72
2022-11-18T08:23:19.101Z,103.53
2022-11-18T08:25:46.945Z,90.85
2022-11-18T08:28:15.066Z,95.05
2022-11-18T08:30:42.091Z,89.55
2022-11-18T08:33:08.957Z,98.05
2022-11-18T08:35:35.967Z,89.30
2022-11-18T08:38:02.912Z,92.22
2022-11-18T08:40:29.789Z,82.13
2022-11-18T08:42:56.662Z,93.47
2022-11-18T08:45:23.646Z,89.55
2022-11-18T08:47:50.562Z,100.47
2022-11-18T08:50:17.652Z,90.63
2022-11-18T08:52:44.465Z,93.43
2022-11-18T08:55:11.380Z,76.25
2022-11-18T08:57:38.117Z,85.65
2022-11-18T09:00:06.049Z,94.68
2022-11-18T09:02:35.546Z,95.25
2022-11-18T09:05:02.485Z,86.38
2022-11-18T09:07:29.381Z,79.45
2022-11-18T09:09:56.492Z,84.88
2022-11-18T09:12:26.365Z,84.85
2022-11-18T09:15:12.844Z,89.28
2022-11-18T09:17:40.138Z,87.80
2022-11-18T09:20:07.610Z,80.30
2022-11-18T09:22:37.703Z,80.55
2022-11-18T09:25:04.845Z,83.05
2022-11-18T09:27:34.338Z,79.32
2022-11-18T09:30:01.682Z,69.13
2022-11-18T09:32:28.546Z,81.22
2022-11-18T09:34:55.404Z,73.45
2022-11-18T09:37:22.625Z,79.65
2022-11-18T09:39:49.693Z,101.82
2022-11-18T09:42:54.907Z,79.40
2022-11-18T09:45:52.315Z,83.47
2022-11-18T09:48:41.659Z,79.43
2022-11-18T09:51:11.266Z,78.88
2022-11-18T09:53:41.386Z,91.43
2022-11-18T09:56:15.001Z,83.20
2022-11-18T09:58:42.917Z,79.30
2022-11-18T10:01:20.380Z,80.10
2022-11-18T10:03:47.531Z,85.53
2022-11-18T10:06:29.480Z,80.18
2022-11-18T10:09:08.127Z,85.50
2022-11-18T10:11:57.596Z,77.60
2022-11-18T10:14:59.987Z,85.82
2022-11-18T10:17:52.344Z,90.30
2022-11-18T10:20:23.528Z,79.55
2022-11-18T10:23:11.184Z,69.20
2022-11-18T10:25:38.000Z,63.17
2022-11-18T10:28:21.990Z,80.78
2022-11-18T10:30:49.275Z,67.43
2022-11-18T10:33:22.260Z,62.67
2022-11-18T10:35:49.576Z,65.75
2022-11-18T10:38:21.088Z,57.50
2022-11-18T10:40:50.898Z,54.28
2022-11-18T10:43:52.878Z,58.47
2022-11-18T10:46:30.118Z,55.22
2022-11-18T10:49:09.194Z,66.40
2022-11-18T10:51:41.851Z,66.93
2022-11-18T10:56:46.957Z,56.55
2022-11-18T10:59:25.146Z,61.47
2022-11-18T11:02:19.425Z,65.03
2022-11-18T11:04:48.698Z,83.05
2022-11-18T11:07:32.571Z,58.95
2022-11-18T11:10:23.581Z,52.22
2022-11-18T11:12:57.842Z,65.07
2022-11-18T11:15:32.275Z,50.13
2022-11-18T11:18:21.682Z,50.78
2022-11-18T11:20:48.696Z,52.63
2022-11-18T11:23:22.021Z,48.13
2022-11-18T11:29:01.839Z,54.50
2022-11-18T11:31:56.646Z,52.28
2022-11-18T11:34:36.800Z,56.97
2022-11-18T11:37:17.172Z,52.53
2022-11-18T11:39:57.821Z,56.63
2022-11-18T11:43:03.362Z,59.33
2022-11-18T11:45:33.294Z,58.47
2022-11-18T11:48:06.032Z,56.58
2022-11-18T11:51:01.921Z,49.72
2022-11-18T11:54:15.152Z,43.38
2022-11-18T11:56:56.112Z,56.80
2022-11-18T11:59:28.350Z,61.40
2022-11-18T12:02:03.034Z,45.60
2022-11-18T12:04:40.183Z,50.92
2022-11-18T12:07:24.787Z,49.83
2022-11-18T12:09:51.745Z,61.03
2022-11-18T12:12:56.206Z,52.08
2022-11-18T12:15:53.858Z,56.25
2022-11-18T12:18:21.146Z,50.55
2022-11-18T12:20:50.697Z,54.17
2022-11-18T12:23:26.391Z,58.22
2022-11-18T12:25:58.617Z,48.03
2022-11-18T12:28:41.687Z,49.30
2022-11-18T12:31:20.731Z,49.13
2022-11-18T12:33:54.913Z,43.85
2022-11-18T12:36:38.589Z,60.38
2022-11-18T12:39:24.322Z,40.63
2022-11-18T12:42:19.866Z,49.58
2022-11-18T12:44:49.389Z,44.60
2022-11-18T12:47:36.343Z,42.22
2022-11-18T12:50:03.323Z,45.75
2022-11-18T12:52:30.282Z,40.10
2022-11-18T12:55:03.765Z,44.40
2022-11-18T12:57:33.716Z,43.45
2022-11-18T13:00:22.302Z,40.30
2022-11-18T13:02:54.730Z,38.22
2022-11-18T13:05:26.968Z,43.33
2022-11-18T13:08:13.173Z,49.85
2022-11-18T13:11:44.816Z,46.85
2022-11-18T13:14:46.391Z,53.03
2022-11-18T13:17:51.065Z,35.20
2022-11-18T13:20:35.850Z,37.13
2022-11-18T13:23:33.377Z,37.88
2022-11-18T13:26:06.922Z,43.25
2022-11-18T13:28:54.340Z,66.40
2022-11-18T13:31:31.920Z,32.92
2022-11-18T13:34:23.522Z,37.95
2022-11-18T13:36:52.192Z,35.08
2022-11-18T13:39:25.681Z,39.15
2022-11-18T13:42:14.404Z,36.55
2022-11-18T13:45:00.881Z,36.08
2022-11-18T13:47:40.760Z,39.92
2022-11-18T13:50:07.693Z,45.47
2022-11-18T13:52:51.025Z,52.15
2022-11-18T13:55:20.583Z,47.47
2022-11-18T13:57:51.082Z,46.88
2022-11-18T14:00:31.677Z,43.72
2022-11-18T14:03:04.079Z,52.78
2022-11-18T14:05:31.086Z,51.88
2022-11-18T14:08:02.492Z,63.42
2022-11-18T14:10:39.069Z,51.65
2022-11-18T14:13:25.871Z,49.70
2022-11-18T14:16:18.685Z,46.92
2022-11-18T14:18:47.577Z,51.60
2022-11-18T14:21:26.083Z,56.55
2022-11-18T14:23:52.950Z,50.75
2022-11-18T14:26:34.667Z,53.60
2022-11-18T14:29:14.747Z,51.13
2022-11-18T14:31:42.705Z,58.95
2022-11-18T14:34:18.356Z,60.50
2022-11-18T14:36:46.089Z,62.45
2022-11-18T14:39:31.785Z,49.08
2022-11-18T14:41:59.587Z,64.47
2022-11-18T14:44:28.072Z,50.78
2022-11-18T14:46:57.711Z,54.00
2022-11-18T14:49:26.294Z,52.50
2022-11-18T14:51:54.840Z,59.03
2022-11-18T14:54:26.758Z,51.35
2022-11-18T14:57:18.876Z,71.97
2022-11-18T14:59:45.763Z,57.33
2022-11-18T15:02:17.296Z,58.22
2022-11-18T15:04:46.551Z,62.92
2022-11-18T15:07:18.506Z,62.90
2022-11-18T15:09:49.941Z,50.47
2022-11-18T15:12:17.729Z,58.78
2022-11-18T15:14:44.741Z,62.72
2022-11-18T15:17:12.708Z,59.85
2022-11-18T15:19:40.849Z,55.92
2022-11-18T15:22:08.253Z,53.17
2022-11-18T15:24:35.191Z,66.90
2022-11-18T15:27:05.338Z,61.58
2022-11-18T15:29:32.660Z,58.60
2022-11-18T15:32:00.142Z,62.85
2022-11-18T15:34:27.075Z,61.13
2022-11-18T15:36:53.955Z,72.20
2022-11-18T15:39:20.870Z,58.13
2022-11-18T15:41:47.786Z,63.50
2022-11-18T15:44:14.557Z,70.20
2022-11-18T15:46:41.536Z,59.22
2022-11-18T15:49:13.218Z,57.33
2022-11-18T15:51:40.312Z,57.28
2022-11-18T15:54:07.167Z,61.83
2022-11-18T15:56:34.429Z,51.63
2022-11-18T15:59:15.015Z,60.35
2022-11-18T16:01:44.663Z,61.78
2022-11-18T16:04:14.506Z,69.40
2022-11-18T16:06:44.725Z,66.43
2022-11-18T16:09:12.707Z,59.55
2022-11-18T16:11:58.078Z,55.15
2022-11-18T16:14:25.390Z,60.45
2022-11-18T16:16:54.638Z,52.35
2022-11-18T16:19:24.618Z,67.82
2022-11-18T16:21:54.154Z,67.80
2022-11-18T16:24:23.918Z,58.65
2022-11-18T16:26:51.401Z,53.78
2022-11-18T16:29:19.193Z,70.25
2022-11-18T16:31:52.399Z,52.90
2022-11-18T16:34:29.950Z,57.25
2022-11-18T16:36:58.130Z,52.33
2022-11-18T16:39:27.103Z,69.43
2022-11-18T16:41:59.454Z,59.22
2022-11-18T16:44:29.264Z,68.38
2022-11-18T16:46:57.603Z,68.18
2022-11-18T16:49:26.602Z,54.50
2022-11-18T16:51:55.117Z,52.40
2022-11-18T16:54:26.852Z,70.72
2022-11-18T16:56:55.946Z,63.23
2022-11-18T16:59:27.648Z,67.95
2022-11-18T17:01:56.763Z,61.43
2022-11-18T17:04:25.589Z,50.72
2022-11-18T17:06:52.881Z,57.65
2022-11-18T17:09:23.454Z,58.17
2022-11-18T17:11:52.018Z,60.47
2022-11-18T17:14:19.703Z,56.65
2022-11-18T17:16:46.664Z,54.65
2022-11-18T17:19:18.807Z,59.05
2022-11-18T17:21:46.870Z,63.78
2022-11-18T17:24:20.093Z,57.80
2022-11-18T17:26:49.250Z,59.67
2022-11-18T17:29:16.722Z,63.13
2022-11-18T17:31:44.822Z,82.90
2022-11-18T17:34:16.843Z,60.70
2022-11-18T17:36:43.981Z,62.17
2022-11-18T17:39:16.278Z,65.55
2022-11-18T17:42:01.972Z,58.08
2022-11-18T17:44:29.726Z,58.90
2022-11-18T17:46:56.588Z,56.40
2022-11-18T17:49:23.484Z,72.68
2022-11-18T17:51:53.828Z,56.63
2022-11-18T17:54:21.845Z,49.50
2022-11-18T17:56:52.285Z,71.80
2022-11-18T17:59:19.887Z,56.58
2022-11-18T18:01:46.940Z,56.90
2022-11-18T18:04:15.224Z,67.35
2022-11-18T18:06:42.235Z,57.40
2022-11-18T18:09:09.063Z,57.05
2022-11-18T18:11:35.938Z,56.50
2022-11-18T18:14:14.662Z,56.03
2022-11-18T18:16:49.499Z,67.03
2022-11-18T18:19:18.814Z,58.75
2022-11-18T18:21:46.899Z,59.80
2022-11-18T18:24:19.675Z,65.00
2022-11-18T18:26:47.274Z,55.55
2022-11-18T18:29:14.512Z,47.33
2022-11-18T18:31:41.366Z,60.97
2022-11-18T18:34:08.480Z,47.65
2022-11-18T18:36:35.612Z,56.58
2022-11-18T18:39:02.810Z,50.38
2022-11-18T18:41:30.340Z,66.13
2022-11-18T18:43:57.155Z,66.97
2022-11-18T18:46:32.360Z,54.45
2022-11-18T18:49:10.596Z,60.67
2022-11-18T18:51:39.510Z,56.03
2022-11-18T18:54:07.791Z,53.55
2022-11-18T18:56:34.819Z,54.35
2022-11-18T18:59:02.151Z,52.83
2022-11-18T19:01:29.502Z,56.13
2022-11-18T19:04:01.950Z,47.70
2022-11-18T19:09:19.328Z,52.30
2022-11-18T19:12:04.747Z,76.75
2022-11-18T19:14:33.607Z,68.63
2022-11-18T19:17:04.842Z,68.93
2022-11-18T19:19:55.002Z,59.65
2022-11-18T19:22:22.075Z,53.58
2022-11-18T19:24:50.585Z,46.65
2022-11-18T19:27:21.742Z,45.78
2022-11-18T19:29:48.572Z,52.70
2022-11-18T19:32:15.609Z,56.15
2022-11-18T19:34:42.450Z,50.63
2022-11-18T19:37:09.348Z,56.53
2022-11-18T19:39:37.920Z,53.33
2022-11-18T19:42:05.097Z,63.15
2022-11-18T19:44:31.993Z,62.40
2022-11-18T19:46:59.230Z,58.50
2022-11-18T19:49:26.791Z,55.10
2022-11-18T19:51:53.665Z,47.08
2022-11-18T19:54:20.805Z,56.28
2022-11-18T19:56:47.803Z,60.58
2022-11-18T19:59:14.715Z,67.95
2022-11-18T20:01:41.688Z,62.00
2022-11-18T20:04:08.782Z,70.63
2022-11-18T20:06:36.562Z,70.72
2022-11-18T20:09:06.974Z,66.30
2022-11-18T20:11:34.213Z,67.93
2022-11-18T20:14:01.128Z,54.67
2022-11-18T20:16:28.173Z,54.45
2022-11-18T20:18:59.997Z,59.85
2022-11-18T20:21:29.292Z,49.90
2022-11-18T20:24:01.274Z,55.15
2022-11-18T20:26:32.449Z,61.25
2022-11-18T20:28:59.910Z,65.25
2022-11-18T20:31:27.593Z,52.00
2022-11-18T20:33:56.094Z,56.88
2022-11-18T20:36:28.334Z,52.78
2022-11-18T20:38:57.479Z,56.72
2022-11-18T20:41:25.718Z,52.08
2022-11-18T20:43:53.214Z,44.17
2022-11-18T20:46:21.646Z,48.75
2022-11-18T20:48:49.580Z,52.13
2022-11-18T20:51:17.755Z,50.58
2022-11-18T20:53:45.094Z,42.70
2022-11-18T20:56:14.430Z,46.22
2022-11-18T20:58:41.863Z,44.45
2022-11-18T21:01:19.130Z,48.25
2022-11-18T21:03:54.283Z,58.58
2022-11-18T21:06:23.256Z,56.45
2022-11-18T21:08:55.778Z,57.20
2022-11-18T21:11:22.691Z,53.08
2022-11-18T21:14:08.760Z,60.08
2022-11-18T21:16:35.619Z,57.30
2022-11-18T21:19:02.479Z,66.55
2022-11-18T21:21:52.604Z,61.03
2022-11-18T21:24:27.977Z,65.63
2022-11-18T21:26:55.483Z,51.45
2022-11-18T21:29:24.891Z,49.33
2022-11-18T21:31:52.441Z,50.92
2022-11-18T21:34:19.682Z,51.65
2022-11-18T21:36:50.365Z,55.40
2022-11-18T21:39:21.953Z,52.83
2022-11-18T21:41:54.846Z,51.08
2022-11-18T21:44:23.246Z,49.67
2022-11-18T21:46:50.490Z,57.42
2022-11-18T21:49:17.660Z,45.88
2022-11-18T21:51:45.385Z,46.67
2022-11-18T21:54:12.922Z,45.20
2022-11-18T21:56:39.845Z,50.67
2022-11-18T21:59:07.716Z,56.42
2022-11-18T22:01:34.977Z,47.40
2022-11-18T22:04:04.849Z,46.13
2022-11-18T22:06:33.771Z,39.58
2022-11-18T22:09:02.552Z,43.72
2022-11-18T22:11:29.689Z,48.63
2022-11-18T22:13:57.267Z,46.25
2022-11-18T22:16:25.813Z,49.50
2022-11-18T22:18:59.152Z,61.05
2022-11-18T22:21:28.270Z,55.13
2022-11-18T22:24:00.225Z,58.97
2022-11-18T22:26:28.100Z,73.10
2022-11-18T22:28:57.317Z,45.22
2022-11-18T22:31:26.331Z,50.67
2022-11-18T22:33:53.995Z,44.15
2022-11-18T22:36:23.022Z,44.05
